Time,TemperatureF,DewpointF,PressureIn,WindDirection,WindDirectionDegrees,WindSpeedMPH,WindSpeedGustMPH,Humidity,HourlyPrecipIn,Conditions,Clouds,dailyrainin,SoftwareType,DateUTC
2013-09-13 00:01:00,78.2,76.6,29.89,East,97,0.0,0.0,95,0.00,RA,,0.00,WeatherDisplay:10.37,2013-09-13 04:01:00,
2013-09-13 00:06:00,78.2,76.6,29.89,East,97,0.0,0.0,95,0.00,RA,,0.00,WeatherDisplay:10.37,2013-09-13 04:06:00,
2013-09-13 00:11:00,78.1,76.6,29.90,East,97,0.0,0.0,95,0.00,CLR,,0.00,WeatherDisplay:10.37,2013-09-13 04:11:00,
2013-09-13 00:16:00,78.0,76.5,29.90,East,97,0.0,0.0,95,0.00,CLR,,0.00,WeatherDisplay:10.37,2013-09-13 04:16:00,
2013-09-13 00:21:00,78.1,76.6,29.90,East,97,0.0,0.0,95,0.00,CLR,,0.00,WeatherDisplay:10.37,2013-09-13 04:21:00,
2013-09-13 00:26:00,78.0,76.5,29.89,East,97,0.0,0.0,95,0.00,CLR,,0.00,WeatherDisplay:10.37,2013-09-13 04:26:00,
2013-09-13 00:31:00,78.0,76.5,29.89,East,97,0.0,0.0,95,0.00,CLR,,0.00,WeatherDisplay:10.37,2013-09-13 04:31:00,
2013-09-13 00:36:00,78.2,76.6,29.89,East,97,0.0,0.0,95,0.00,CLR,,0.00,WeatherDisplay:10.37,2013-09-13 04:36:00,
2013-09-13 00:41:00,78.2,76.6,29.89,East,97,0.0,0.0,95,0.00,CLR,,0.00,WeatherDisplay:10.37,2013-09-13 04:41:00,
2013-09-13 00:46:00,78.3,77.1,29.88,East,97,0.0,0.0,96,0.00,CLR,,0.00,WeatherDisplay:10.37,2013-09-13 04:46:00,
2013-09-13 00:51:00,78.3,76.7,29.88,East,97,0.0,0.0,95,0.00,CLR,,0.00,WeatherDisplay:10.37,2013-09-13 04:51:00,
2013-09-13 00:56:00,78.2,76.6,29.88,East,97,0.0,0.0,95,0.00,CLR,,0.00,WeatherDisplay:10.37,2013-09-13 04:56:00,
2013-09-13 01:01:00,78.1,76.6,29.88,East,97,0.0,0.0,95,0.00,CLR,,0.00,WeatherDisplay:10.37,2013-09-13 05:01:00,
2013-09-13 01:06:00,77.9,76.4,29.88,East,97,0.0,0.0,95,0.00,CLR,,0.00,WeatherDisplay:10.37,2013-09-13 05:06:00,
2013-09-13 01:11:00,77.8,76.3,29.88,East,97,0.0,0.0,95,0.00,CLR,,0.00,WeatherDisplay:10.37,2013-09-13 05:11:00,
2013-09-13 01:16:00,77.7,76.2,29.88,East,97,0.0,0.0,95,0.00,CLR,,0.00,WeatherDisplay:10.37,2013-09-13 05:16:00,
2013-09-13 01:21:00,77.6,76.1,29.88,East,97,0.0,0.0,95,0.00,CLR,,0.00,WeatherDisplay:10.37,2013-09-13 05:21:00,
2013-09-13 01:26:00,77.6,76.1,29.88,East,97,0.5,1.2,95,0.00,CLR,,0.00,WeatherDisplay:10.37,2013-09-13 05:26:00,
2013-09-13 01:31:00,77.6,76.1,29.88,East,97,0.0,0.0,95,0.00,CLR,,0.00,WeatherDisplay:10.37,2013-09-13 05:31:00,
2013-09-13 01:36:00,77.6,76.1,29.88,East,97,1.6,2.3,95,0.00,CLR,,0.00,WeatherDisplay:10.37,2013-09-13 05:36:00,
2013-09-13 01:41:00,77.5,76.0,29.88,East,97,1.6,3.5,95,0.00,CLR,,0.00,WeatherDisplay:10.37,2013-09-13 05:41:00,
2013-09-13 01:46:00,77.5,76.0,29.88,East,97,0.2,2.3,95,0.00,CLR,,0.00,WeatherDisplay:10.37,2013-09-13 05:46:00,
2013-09-13 01:51:00,77.5,76.0,29.88,East,97,0.5,1.2,95,0.00,CLR,,0.00,WeatherDisplay:10.37,2013-09-13 05:51:00,
2013-09-13 01:56:00,77.5,76.0,29.87,East,97,0.2,1.2,95,0.00,CLR,,0.00,WeatherDisplay:10.37,2013-09-13 05:56:00,
2013-09-13 02:01:00,77.4,76.2,29.87,East,97,0.0,0.0,96,0.00,CLR,,0.00,WeatherDisplay:10.37,2013-09-13 06:01:00,
2013-09-13 02:06:00,77.3,75.8,29.87,East,97,0.5,1.2,95,0.00,CLR,,0.00,WeatherDisplay:10.37,2013-09-13 06:06:00,
2013-09-13 02:11:00,77.3,76.1,29.87,East,97,0.0,0.0,96,0.00,CLR,,0.00,WeatherDisplay:10.37,2013-09-13 06:11:00,
2013-09-13 02:17:00,77.1,75.9,29.87,East,97,0.0,0.0,96,0.00,CLR,,0.00,WeatherDisplay:10.37,2013-09-13 06:17:00,
2013-09-13 02:21:00,77.0,75.8,29.87,East,97,0.3,1.2,96,0.00,CLR,,0.00,WeatherDisplay:10.37,2013-09-13 06:21:00,
2013-09-13 02:27:00,76.9,75.7,29.86,East,97,0.0,0.0,96,0.00,CLR,,0.00,WeatherDisplay:10.37,2013-09-13 06:27:00,
2013-09-13 02:32:00,76.8,75.6,29.87,East,97,0.0,0.0,96,0.00,CLR,,0.00,WeatherDisplay:10.37,2013-09-13 06:32:00,
2013-09-13 02:37:00,76.7,75.5,29.87,East,97,0.0,0.0,96,0.00,CLR,,0.00,WeatherDisplay:10.37,2013-09-13 06:37:00,
2013-09-13 02:42:00,76.6,75.4,29.86,East,97,0.0,0.0,96,0.00,CLR,,0.00,WeatherDisplay:10.37,2013-09-13 06:42:00,
2013-09-13 02:47:00,76.6,75.4,29.86,East,97,0.0,0.0,96,0.00,CLR,,0.00,WeatherDisplay:10.37,2013-09-13 06:47:00,
2013-09-13 02:52:00,76.5,75.3,29.86,East,97,0.0,0.0,96,0.00,CLR,,0.00,WeatherDisplay:10.37,2013-09-13 06:52:00,
2013-09-13 02:57:00,76.6,75.4,29.86,East,97,0.0,0.0,96,0.00,CLR,,0.00,WeatherDisplay:10.37,2013-09-13 06:57:00,
2013-09-13 03:02:00,76.4,75.2,29.86,East,97,0.0,1.2,96,0.00,CLR,,0.00,WeatherDisplay:10.37,2013-09-13 07:02:00,
2013-09-13 03:07:00,76.4,75.2,29.87,East,97,0.2,1.2,96,0.00,CLR,,0.00,WeatherDisplay:10.37,2013-09-13 07:07:00,
2013-09-13 03:12:00,76.3,75.1,29.87,East,97,0.0,0.0,96,0.00,CLR,,0.00,WeatherDisplay:10.37,2013-09-13 07:12:00,
2013-09-13 03:17:00,76.2,75.0,29.86,East,97,0.0,0.0,96,0.00,CLR,,0.00,WeatherDisplay:10.37,2013-09-13 07:17:00,
2013-09-13 03:22:00,76.1,74.9,29.86,East,97,0.0,0.0,96,0.00,CLR,,0.00,WeatherDisplay:10.37,2013-09-13 07:22:00,
2013-09-13 03:27:00,76.1,74.9,29.86,East,97,0.0,0.0,96,0.00,CLR,,0.00,WeatherDisplay:10.37,2013-09-13 07:27:00,
2013-09-13 03:32:00,76.5,75.6,29.86,East,97,0.0,0.0,97,0.00,CLR,,0.00,WeatherDisplay:10.37,2013-09-13 07:32:00,
2013-09-13 03:37:00,76.4,75.5,29.86,East,97,0.0,0.0,97,0.00,CLR,,0.00,WeatherDisplay:10.37,2013-09-13 07:37:00,
2013-09-13 03:42:00,76.2,75.0,29.86,East,97,0.0,0.0,96,0.00,CLR,,0.00,WeatherDisplay:10.37,2013-09-13 07:42:00,
2013-09-13 03:47:00,76.0,75.1,29.86,East,97,0.0,0.0,97,0.00,CLR,,0.00,WeatherDisplay:10.37,2013-09-13 07:47:00,
2013-09-13 03:52:00,75.8,74.9,29.86,East,97,0.0,0.0,97,0.00,CLR,,0.00,WeatherDisplay:10.37,2013-09-13 07:52:00,
2013-09-13 03:57:00,75.8,74.9,29.86,East,97,0.0,0.0,97,0.00,CLR,,0.00,WeatherDisplay:10.37,2013-09-13 07:57:00,
2013-09-13 04:02:00,75.8,74.9,29.86,East,97,0.0,0.0,97,0.00,CLR,,0.00,WeatherDisplay:10.37,2013-09-13 08:02:00,
2013-09-13 04:07:00,75.8,74.9,29.86,East,97,0.0,0.0,97,0.00,CLR,,0.00,WeatherDisplay:10.37,2013-09-13 08:07:00,
2013-09-13 04:12:00,75.8,74.9,29.86,East,97,0.6,1.2,97,0.00,CLR,,0.00,WeatherDisplay:10.37,2013-09-13 08:12:00,
2013-09-13 04:17:00,75.8,74.9,29.86,East,97,0.3,0.0,97,0.00,CLR,,0.00,WeatherDisplay:10.37,2013-09-13 08:17:00,
2013-09-13 04:22:00,75.8,74.9,29.86,East,97,0.1,2.3,97,0.00,CLR,,0.00,WeatherDisplay:10.37,2013-09-13 08:22:00,
2013-09-13 04:27:00,75.9,75.0,29.86,East,97,0.4,2.3,97,0.00,CLR,,0.00,WeatherDisplay:10.37,2013-09-13 08:27:00,
2013-09-13 04:32:00,76.0,75.1,29.86,East,97,0.1,2.3,97,0.00,CLR,,0.00,WeatherDisplay:10.37,2013-09-13 08:32:00,
2013-09-13 04:37:00,76.0,75.1,29.86,East,97,0.3,1.2,97,0.00,CLR,,0.00,WeatherDisplay:10.37,2013-09-13 08:37:00,
2013-09-13 04:42:00,76.0,75.1,29.86,East,97,0.1,2.3,97,0.00,CLR,,0.00,WeatherDisplay:10.37,2013-09-13 08:42:00,
2013-09-13 04:47:00,75.9,75.0,29.86,East,97,0.0,1.2,97,0.00,CLR,,0.00,WeatherDisplay:10.37,2013-09-13 08:47:00,
2013-09-13 04:52:00,75.8,74.9,29.86,East,97,0.0,0.0,97,0.00,CLR,,0.00,WeatherDisplay:10.37,2013-09-13 08:52:00,
2013-09-13 04:57:00,75.8,74.9,29.86,East,97,0.1,1.2,97,0.00,CLR,,0.00,WeatherDisplay:10.37,2013-09-13 08:57:00,
2013-09-13 05:02:00,76.0,75.4,29.86,East,97,0.0,0.0,98,0.00,CLR,,0.00,WeatherDisplay:10.37,2013-09-13 09:02:00,
2013-09-13 05:07:00,76.1,75.5,29.86,East,97,0.0,0.0,98,0.00,CLR,,0.00,WeatherDisplay:10.37,2013-09-13 09:07:00,
2013-09-13 05:12:00,76.0,75.1,29.86,East,97,0.0,0.0,97,0.00,CLR,,0.00,WeatherDisplay:10.37,2013-09-13 09:12:00,
2013-09-13 05:17:00,75.9,75.0,29.86,East,97,0.0,0.0,97,0.00,CLR,,0.00,WeatherDisplay:10.37,2013-09-13 09:17:00,
2013-09-13 05:22:00,75.7,75.1,29.86,East,97,0.0,0.0,98,0.00,CLR,,0.00,WeatherDisplay:10.37,2013-09-13 09:22:00,
2013-09-13 05:27:00,75.7,75.1,29.85,East,97,0.0,0.0,98,0.00,CLR,,0.00,WeatherDisplay:10.37,2013-09-13 09:27:00,
2013-09-13 05:32:00,75.4,74.5,29.85,East,97,0.0,0.0,97,0.00,CLR,,0.00,WeatherDisplay:10.37,2013-09-13 09:32:00,
2013-09-13 05:37:00,75.2,74.3,29.85,East,97,0.0,0.0,97,0.00,CLR,,0.00,WeatherDisplay:10.37,2013-09-13 09:37:00,
2013-09-13 05:42:00,75.1,74.2,29.85,East,97,0.0,0.0,97,0.00,CLR,,0.00,WeatherDisplay:10.37,2013-09-13 09:42:00,
2013-09-13 05:47:00,75.0,74.1,29.85,East,97,0.0,0.0,97,0.00,CLR,,0.00,WeatherDisplay:10.37,2013-09-13 09:47:00,
2013-09-13 05:52:00,74.9,74.0,29.85,East,97,0.0,0.0,97,0.00,CLR,,0.00,WeatherDisplay:10.37,2013-09-13 09:52:00,
2013-09-13 05:57:00,74.9,74.0,29.85,East,97,0.0,0.0,97,0.00,CLR,,0.00,WeatherDisplay:10.37,2013-09-13 09:57:00,
2013-09-13 06:02:00,74.9,74.0,29.85,East,97,0.0,0.0,97,0.00,CLR,,0.00,WeatherDisplay:10.37,2013-09-13 10:02:00,
2013-09-13 06:07:00,74.8,73.9,29.86,East,97,0.0,0.0,97,0.00,CLR,,0.00,WeatherDisplay:10.37,2013-09-13 10:07:00,
2013-09-13 06:12:00,75.0,74.4,29.86,East,97,0.0,0.0,98,0.00,CLR,,0.00,WeatherDisplay:10.37,2013-09-13 10:12:00,
2013-09-13 06:17:00,75.1,74.5,29.86,East,97,0.0,0.0,98,0.00,CLR,,0.00,WeatherDisplay:10.37,2013-09-13 10:17:00,
2013-09-13 06:22:00,74.9,74.0,29.86,East,97,0.0,0.0,97,0.00,CLR,,0.00,WeatherDisplay:10.37,2013-09-13 10:22:00,
2013-09-13 06:27:00,74.6,73.7,29.86,East,97,0.0,0.0,97,0.00,CLR,,0.00,WeatherDisplay:10.37,2013-09-13 10:27:00,
2013-09-13 06:32:00,74.5,73.9,29.86,East,97,0.0,0.0,98,0.00,CLR,,0.00,WeatherDisplay:10.37,2013-09-13 10:32:00,
2013-09-13 06:37:00,74.4,73.8,29.86,East,97,0.0,0.0,98,0.00,CLR,,0.00,WeatherDisplay:10.37,2013-09-13 10:37:00,
2013-09-13 06:42:00,74.4,73.8,29.86,East,97,0.0,0.0,98,0.00,CLR,,0.00,WeatherDisplay:10.37,2013-09-13 10:42:00,
2013-09-13 06:47:00,74.4,73.8,29.87,East,97,0.0,0.0,98,0.00,CLR,,0.00,WeatherDisplay:10.37,2013-09-13 10:47:00,
2013-09-13 06:52:00,74.2,73.3,29.87,East,97,0.0,0.0,97,0.00,CLR,,0.00,WeatherDisplay:10.37,2013-09-13 10:52:00,
2013-09-13 06:57:00,74.2,73.6,29.87,East,97,0.0,0.0,98,0.00,CLR,,0.00,WeatherDisplay:10.37,2013-09-13 10:57:00,
2013-09-13 07:02:00,74.3,73.7,29.87,East,97,0.0,0.0,98,0.00,CLR,,0.00,WeatherDisplay:10.37,2013-09-13 11:02:00,
2013-09-13 07:07:00,74.2,73.6,29.87,East,97,0.0,0.0,98,0.00,CLR,,0.00,WeatherDisplay:10.37,2013-09-13 11:07:00,
2013-09-13 07:12:00,74.1,73.5,29.87,East,97,0.0,0.0,98,0.00,CLR,,0.00,WeatherDisplay:10.37,2013-09-13 11:12:00,
2013-09-13 07:17:00,74.0,73.4,29.88,East,97,0.0,0.0,98,0.00,CLR,,0.00,WeatherDisplay:10.37,2013-09-13 11:17:00,
2013-09-13 07:22:00,73.9,73.3,29.88,East,97,0.0,0.0,98,0.00,CLR,,0.00,WeatherDisplay:10.37,2013-09-13 11:22:00,
2013-09-13 07:27:00,73.9,73.3,29.88,East,97,0.0,0.0,98,0.00,CLR,,0.00,WeatherDisplay:10.37,2013-09-13 11:27:00,
2013-09-13 07:32:00,74.0,73.4,29.88,East,97,0.0,0.0,98,0.00,CLR,,0.00,WeatherDisplay:10.37,2013-09-13 11:32:00,
2013-09-13 07:37:00,74.4,73.8,29.88,East,97,0.0,0.0,98,0.00,CLR,,0.00,WeatherDisplay:10.37,2013-09-13 11:37:00,
2013-09-13 07:42:00,74.6,74.0,29.88,East,97,0.0,0.0,98,0.00,CLR,,0.00,WeatherDisplay:10.37,2013-09-13 11:42:00,
2013-09-13 07:47:00,75.0,74.4,29.88,East,97,0.0,0.0,98,0.00,CLR,,0.00,WeatherDisplay:10.37,2013-09-13 11:47:00,
2013-09-13 07:52:00,75.3,75.0,29.88,East,97,0.0,0.0,99,0.00,CLR,,0.00,WeatherDisplay:10.37,2013-09-13 11:52:00,
2013-09-13 07:57:00,75.7,75.1,29.88,East,97,0.0,0.0,98,0.00,CLR,,0.00,WeatherDisplay:10.37,2013-09-13 11:57:00,
2013-09-13 08:03:00,76.1,75.8,29.88,East,97,0.0,0.0,99,0.00,CLR,,0.00,WeatherDisplay:10.37,2013-09-13 12:03:00,
2013-09-13 08:08:00,76.7,76.4,29.88,East,97,0.0,0.0,99,0.00,CLR,,0.00,WeatherDisplay:10.37,2013-09-13 12:08:00,
2013-09-13 08:13:00,77.2,76.9,29.88,East,97,0.0,0.0,99,0.00,CLR,,0.00,WeatherDisplay:10.37,2013-09-13 12:13:00,
2013-09-13 08:18:00,77.3,76.7,29.88,East,97,0.0,0.0,98,0.00,CLR,,0.00,WeatherDisplay:10.37,2013-09-13 12:18:00,
2013-09-13 08:23:00,77.8,77.2,29.88,East,97,0.0,0.0,98,0.00,CLR,,0.00,WeatherDisplay:10.37,2013-09-13 12:23:00,
2013-09-13 08:28:00,78.5,77.9,29.88,East,97,0.0,0.0,98,0.00,CLR,,0.00,WeatherDisplay:10.37,2013-09-13 12:28:00,
2013-09-13 08:33:00,79.3,78.4,29.88,East,97,0.0,0.0,97,0.00,CLR,,0.00,WeatherDisplay:10.37,2013-09-13 12:33:00,
2013-09-13 08:38:00,80.2,78.6,29.88,East,97,0.0,0.0,95,0.00,CLR,,0.00,WeatherDisplay:10.37,2013-09-13 12:38:00,
2013-09-13 08:43:00,80.6,78.4,29.88,East,97,0.0,0.0,93,0.00,CLR,,0.00,WeatherDisplay:10.37,2013-09-13 12:43:00,
2013-09-13 08:48:00,81.2,78.7,29.88,East,97,0.0,0.0,92,0.00,CLR,,0.00,WeatherDisplay:10.37,2013-09-13 12:48:00,
2013-09-13 08:53:00,81.9,78.7,29.88,East,97,0.0,0.0,90,0.00,CLR,,0.00,WeatherDisplay:10.37,2013-09-13 12:53:00,
2013-09-13 08:58:00,82.4,78.5,29.88,East,97,0.0,0.0,88,0.00,CLR,,0.00,WeatherDisplay:10.37,2013-09-13 12:58:00,
2013-09-13 09:03:00,82.6,78.7,29.88,East,97,0.0,0.0,88,0.00,CLR,,0.00,WeatherDisplay:10.37,2013-09-13 13:03:00,
2013-09-13 09:08:00,83.1,78.8,29.88,East,97,0.0,0.0,87,0.00,CLR,,0.00,WeatherDisplay:10.37,2013-09-13 13:08:00,
2013-09-13 09:13:00,83.3,78.7,29.88,East,97,0.0,0.0,86,0.00,CLR,,0.00,WeatherDisplay:10.37,2013-09-13 13:13:00,
2013-09-13 09:18:00,83.3,78.3,29.88,East,97,0.0,0.0,85,0.00,CLR,,0.00,WeatherDisplay:10.37,2013-09-13 13:18:00,
2013-09-13 09:23:00,83.5,78.5,29.88,East,97,0.0,0.0,85,0.00,CLR,,0.00,WeatherDisplay:10.37,2013-09-13 13:23:00,
2013-09-13 09:28:00,83.6,77.9,29.88,East,97,0.0,0.0,83,0.00,CLR,,0.00,WeatherDisplay:10.37,2013-09-13 13:28:00,
2013-09-13 09:33:00,83.8,78.4,29.88,East,97,0.0,0.0,84,0.00,CLR,,0.00,WeatherDisplay:10.37,2013-09-13 13:33:00,
2013-09-13 09:38:00,84.0,77.5,29.88,East,97,0.0,0.0,81,0.00,CLR,,0.00,WeatherDisplay:10.37,2013-09-13 13:38:00,
2013-09-13 09:43:00,83.9,77.4,29.88,East,97,0.0,0.0,81,0.00,CLR,,0.00,WeatherDisplay:10.37,2013-09-13 13:43:00,
2013-09-13 09:48:00,84.1,77.6,29.88,East,97,0.0,0.0,81,0.00,CLR,,0.00,WeatherDisplay:10.37,2013-09-13 13:48:00,
2013-09-13 09:53:00,84.4,77.2,29.89,East,97,0.0,0.0,79,0.00,CLR,,0.00,WeatherDisplay:10.37,2013-09-13 13:53:00,
2013-09-13 09:58:00,84.7,77.1,29.89,East,97,0.0,0.0,78,0.00,CLR,,0.00,WeatherDisplay:10.37,2013-09-13 13:58:00,
2013-09-13 10:03:00,85.0,76.2,29.89,East,97,0.0,0.0,75,0.00,CLR,,0.00,WeatherDisplay:10.37,2013-09-13 14:03:00,
2013-09-13 10:08:00,85.4,76.2,29.89,East,97,0.0,0.0,74,0.00,CLR,,0.00,WeatherDisplay:10.37,2013-09-13 14:08:00,
2013-09-13 10:13:00,85.7,77.7,29.89,East,97,0.0,0.0,77,0.00,CLR,,0.00,WeatherDisplay:10.37,2013-09-13 14:13:00,
2013-09-13 10:18:00,86.1,76.8,29.89,East,97,0.0,0.0,74,0.00,CLR,,0.00,WeatherDisplay:10.37,2013-09-13 14:18:00,
2013-09-13 10:23:00,86.1,76.8,29.89,East,97,0.0,0.0,74,0.00,CLR,,0.00,WeatherDisplay:10.37,2013-09-13 14:23:00,
2013-09-13 10:28:00,86.0,75.9,29.89,East,97,0.0,0.0,72,0.00,CLR,,0.00,WeatherDisplay:10.37,2013-09-13 14:28:00,
2013-09-13 10:33:00,85.9,76.2,29.89,East,97,0.0,0.0,73,0.00,CLR,,0.00,WeatherDisplay:10.37,2013-09-13 14:33:00,
2013-09-13 10:38:00,85.4,76.2,29.89,East,97,0.0,0.0,74,0.00,CLR,,0.00,WeatherDisplay:10.37,2013-09-13 14:38:00,
2013-09-13 10:43:00,85.0,76.6,29.89,East,97,0.0,0.0,76,0.00,CLR,,0.00,WeatherDisplay:10.37,2013-09-13 14:43:00,
2013-09-13 10:48:00,85.1,76.7,29.89,East,97,0.0,0.0,76,0.00,CLR,,0.00,WeatherDisplay:10.37,2013-09-13 14:48:00,
2013-09-13 10:53:00,85.9,77.5,29.89,East,97,0.0,0.0,76,0.00,CLR,,0.00,WeatherDisplay:10.37,2013-09-13 14:53:00,
2013-09-13 10:58:00,86.5,76.8,29.89,East,97,0.0,0.0,73,0.00,CLR,,0.00,WeatherDisplay:10.37,2013-09-13 14:58:00,
2013-09-13 11:03:00,86.4,75.5,29.89,East,97,0.0,0.0,70,0.00,CLR,,0.00,WeatherDisplay:10.37,2013-09-13 15:03:00,
2013-09-13 11:08:00,86.1,74.7,29.89,East,97,0.0,0.0,69,0.00,CLR,,0.00,WeatherDisplay:10.37,2013-09-13 15:08:00,
2013-09-13 11:13:00,85.9,75.0,29.89,East,97,0.0,0.0,70,0.00,CLR,,0.00,WeatherDisplay:10.37,2013-09-13 15:13:00,
2013-09-13 11:18:00,86.4,74.6,29.89,East,97,0.0,0.0,68,0.00,CLR,,0.00,WeatherDisplay:10.37,2013-09-13 15:18:00,
2013-09-13 11:23:00,86.8,76.3,29.89,East,97,0.0,0.0,71,0.00,CLR,,0.00,WeatherDisplay:10.37,2013-09-13 15:23:00,
2013-09-13 11:28:00,87.1,74.8,29.89,East,97,0.0,0.0,67,0.00,CLR,,0.00,WeatherDisplay:10.37,2013-09-13 15:28:00,
2013-09-13 11:33:00,87.4,74.6,29.89,East,97,0.0,0.0,66,0.00,CLR,,0.00,WeatherDisplay:10.37,2013-09-13 15:33:00,
2013-09-13 11:38:00,87.6,73.0,29.88,East,97,0.0,0.0,62,0.00,CLR,,0.00,WeatherDisplay:10.37,2013-09-13 15:38:00,
2013-09-13 11:43:00,87.6,75.3,29.88,East,97,0.0,0.0,67,0.00,CLR,,0.00,WeatherDisplay:10.37,2013-09-13 15:43:00,
2013-09-13 11:48:00,87.0,73.8,29.88,East,97,0.0,0.0,65,0.00,CLR,,0.00,WeatherDisplay:10.37,2013-09-13 15:48:00,
2013-09-13 11:54:00,86.9,75.1,29.88,East,97,0.2,0.0,68,0.00,CLR,,0.00,WeatherDisplay:10.37,2013-09-13 15:54:00,
2013-09-13 11:59:00,87.4,74.6,29.88,East,97,2.0,3.5,66,0.00,CLR,,0.00,WeatherDisplay:10.37,2013-09-13 15:59:00,
2013-09-13 12:04:00,88.0,76.1,29.88,East,97,0.8,1.2,68,0.00,CLR,,0.00,WeatherDisplay:10.37,2013-09-13 16:04:00,
2013-09-13 12:09:00,88.4,75.1,29.88,WSW,256,0.9,3.5,65,0.00,CLR,,0.00,WeatherDisplay:10.37,2013-09-13 16:09:00,
2013-09-13 12:14:00,88.8,76.0,29.88,WNW,302,0.0,0.0,66,0.00,CLR,,0.00,WeatherDisplay:10.37,2013-09-13 16:14:00,
2013-09-13 12:19:00,88.9,74.7,29.88,West,261,0.0,0.0,63,0.00,CLR,,0.00,WeatherDisplay:10.37,2013-09-13 16:19:00,
2013-09-13 12:24:00,88.4,72.7,29.88,South,190,0.0,0.0,60,0.00,CLR,,0.00,WeatherDisplay:10.37,2013-09-13 16:24:00,
2013-09-13 12:29:00,88.1,73.4,29.87,WSW,251,0.0,0.0,62,0.00,CLR,,0.00,WeatherDisplay:10.37,2013-09-13 16:29:00,
2013-09-13 12:34:00,88.3,73.6,29.87,SE,143,0.0,0.0,62,0.00,CLR,,0.00,WeatherDisplay:10.37,2013-09-13 16:34:00,
2013-09-13 12:39:00,87.9,72.8,29.87,SE,132,0.0,1.2,61,0.00,CLR,,0.00,WeatherDisplay:10.37,2013-09-13 16:39:00,
2013-09-13 12:44:00,87.3,72.2,29.87,ENE,74,0.0,0.0,61,0.00,CLR,,0.00,WeatherDisplay:10.37,2013-09-13 16:44:00,
2013-09-13 12:49:00,87.4,73.7,29.87,ENE,71,0.0,0.0,64,0.00,CLR,,0.00,WeatherDisplay:10.37,2013-09-13 16:49:00,
2013-09-13 12:54:00,88.3,75.9,29.86,SW,229,0.6,2.3,67,0.00,CLR,,0.00,WeatherDisplay:10.37,2013-09-13 16:54:00,
2013-09-13 12:59:00,89.2,75.0,29.86,SW,231,0.0,4.6,63,0.00,CLR,,0.00,WeatherDisplay:10.37,2013-09-13 16:59:00,
2013-09-13 13:04:00,89.7,74.9,29.86,SW,223,0.0,0.0,62,0.00,CLR,,0.00,WeatherDisplay:10.37,2013-09-13 17:04:00,
2013-09-13 13:09:00,89.7,74.5,29.86,WNW,303,0.0,3.5,61,0.00,CLR,,0.00,WeatherDisplay:10.37,2013-09-13 17:09:00,
2013-09-13 13:14:00,89.4,75.1,29.86,NNE,12,0.0,0.0,63,0.00,CLR,,0.00,WeatherDisplay:10.37,2013-09-13 17:14:00,
2013-09-13 13:19:00,89.2,76.4,29.85,WSW,244,0.0,0.0,66,0.00,CLR,,0.00,WeatherDisplay:10.37,2013-09-13 17:19:00,
2013-09-13 13:24:00,89.3,74.1,29.85,SSE,157,0.0,3.5,61,0.00,CLR,,0.00,WeatherDisplay:10.37,2013-09-13 17:24:00,
2013-09-13 13:29:00,89.1,73.9,29.85,WSW,249,0.0,1.2,61,0.00,CLR,,0.00,WeatherDisplay:10.37,2013-09-13 17:29:00,
2013-09-13 13:34:00,89.6,73.9,29.85,SW,225,0.0,4.6,60,0.00,CLR,,0.00,WeatherDisplay:10.37,2013-09-13 17:34:00,
2013-09-13 13:39:00,90.2,72.4,29.84,SW,214,0.0,0.0,56,0.00,CLR,,0.00,WeatherDisplay:10.37,2013-09-13 17:39:00,
2013-09-13 13:44:00,90.4,73.6,29.84,SSW,202,0.0,0.0,58,0.00,CLR,,0.00,WeatherDisplay:10.37,2013-09-13 17:44:00,
2013-09-13 13:49:00,90.7,72.3,29.84,SW,223,2.0,2.3,55,0.00,CLR,,0.00,WeatherDisplay:10.37,2013-09-13 17:49:00,
2013-09-13 13:54:00,91.5,72.5,29.84,SW,233,2.1,3.5,54,0.00,CLR,,0.00,WeatherDisplay:10.37,2013-09-13 17:54:00,
2013-09-13 13:59:00,91.9,72.9,29.84,SSW,206,0.6,3.5,54,0.00,CLR,,0.00,WeatherDisplay:10.37,2013-09-13 17:59:00,
2013-09-13 14:04:00,91.8,73.3,29.84,SW,233,0.1,1.2,55,0.00,CLR,,0.00,WeatherDisplay:10.37,2013-09-13 18:04:00,
2013-09-13 14:09:00,91.7,72.1,29.83,WNW,298,0.0,0.0,53,0.00,CLR,,0.00,WeatherDisplay:10.37,2013-09-13 18:09:00,
2013-09-13 14:14:00,91.3,73.9,29.83,SSW,213,1.5,4.6,57,0.00,CLR,,0.00,WeatherDisplay:10.37,2013-09-13 18:14:00,
2013-09-13 14:19:00,91.0,74.7,29.83,South,184,0.9,3.5,59,0.00,CLR,,0.00,WeatherDisplay:10.37,2013-09-13 18:19:00,
2013-09-13 14:24:00,91.6,72.0,29.83,WSW,251,0.0,0.0,53,0.00,CLR,,0.00,WeatherDisplay:10.37,2013-09-13 18:24:00,
2013-09-13 14:29:00,91.8,71.7,29.83,South,169,0.1,1.2,52,0.00,CLR,,0.00,WeatherDisplay:10.37,2013-09-13 18:29:00,
2013-09-13 14:34:00,91.4,73.0,29.83,WSW,250,1.3,3.5,55,0.00,CLR,,0.00,WeatherDisplay:10.37,2013-09-13 18:34:00,
2013-09-13 14:39:00,91.2,73.8,29.82,WSW,249,0.1,1.2,57,0.00,CLR,,0.00,WeatherDisplay:10.37,2013-09-13 18:39:00,
2013-09-13 14:44:00,91.1,73.2,29.82,WSW,245,0.0,0.0,56,0.00,CLR,,0.00,WeatherDisplay:10.37,2013-09-13 18:44:00,
2013-09-13 14:49:00,91.1,73.7,29.82,SW,235,0.6,2.3,57,0.00,CLR,,0.00,WeatherDisplay:10.37,2013-09-13 18:49:00,
2013-09-13 14:54:00,91.1,73.7,29.82,WSW,238,0.0,0.0,57,0.00,CLR,,0.00,WeatherDisplay:10.37,2013-09-13 18:54:00,
2013-09-13 14:59:00,91.0,73.1,29.82,WSW,238,0.0,0.0,56,0.00,CLR,,0.00,WeatherDisplay:10.37,2013-09-13 18:59:00,
2013-09-13 15:04:00,90.8,74.0,29.82,ENE,73,0.0,0.0,58,0.00,CLR,,0.00,WeatherDisplay:10.37,2013-09-13 19:04:00,
2013-09-13 15:09:00,90.1,74.3,29.82,NNE,14,0.0,0.0,60,0.00,CLR,,0.00,WeatherDisplay:10.37,2013-09-13 19:09:00,
2013-09-13 15:14:00,89.6,75.8,29.81,NNW,338,0.1,1.0,64,0.00,CLR,,0.00,WeatherDisplay:10.37,2013-09-13 19:14:00,
2013-09-13 15:19:00,89.4,75.1,29.81,SSW,200,1.4,3.5,63,0.00,CLR,,0.00,WeatherDisplay:10.37,2013-09-13 19:19:00,
2013-09-13 15:24:00,89.5,74.8,29.81,East,83,0.4,2.3,62,0.00,CLR,,0.00,WeatherDisplay:10.37,2013-09-13 19:24:00,
2013-09-13 15:29:00,88.8,75.5,29.81,East,95,1.9,3.5,65,0.00,CLR,,0.00,WeatherDisplay:10.37,2013-09-13 19:29:00,
2013-09-13 15:34:00,88.5,76.1,29.81,ENE,59,1.6,3.5,67,0.00,CLR,,0.00,WeatherDisplay:10.37,2013-09-13 19:34:00,
2013-09-13 15:39:00,88.6,76.2,29.80,SE,130,4.7,6.9,67,0.00,CLR,,0.00,WeatherDisplay:10.37,2013-09-13 19:39:00,
2013-09-13 15:44:00,88.3,75.9,29.80,SE,131,2.5,6.9,67,0.00,CLR,,0.00,WeatherDisplay:10.37,2013-09-13 19:44:00,
2013-09-13 15:49:00,88.0,76.1,29.80,ESE,105,1.1,3.5,68,0.00,CLR,,0.00,WeatherDisplay:10.37,2013-09-13 19:49:00,
2013-09-13 15:54:00,88.0,76.5,29.80,East,80,3.0,4.6,69,0.00,CLR,,0.00,WeatherDisplay:10.37,2013-09-13 19:54:00,
2013-09-13 15:59:00,87.9,76.0,29.80,ESE,106,4.6,8.1,68,0.00,CLR,,0.00,WeatherDisplay:10.37,2013-09-13 19:59:00,
2013-09-13 16:04:00,87.7,76.7,29.80,SE,128,5.3,9.2,70,0.00,CLR,,0.00,WeatherDisplay:10.37,2013-09-13 20:04:00,
2013-09-13 16:09:00,87.5,76.5,29.80,ESE,117,0.3,2.3,70,0.00,CLR,,0.00,WeatherDisplay:10.37,2013-09-13 20:09:00,
2013-09-13 16:14:00,87.5,76.1,29.79,East,84,2.8,4.6,69,0.00,CLR,,0.00,WeatherDisplay:10.37,2013-09-13 20:14:00,
2013-09-13 16:19:00,87.4,76.4,29.80,East,90,4.4,10.4,70,0.00,CLR,,0.00,WeatherDisplay:10.37,2013-09-13 20:19:00,
2013-09-13 16:24:00,87.5,76.1,29.79,ESE,117,4.9,6.9,69,0.00,CLR,,0.00,WeatherDisplay:10.37,2013-09-13 20:24:00,
2013-09-13 16:29:00,87.5,76.1,29.80,ENE,67,1.3,4.0,69,0.00,CLR,,0.00,WeatherDisplay:10.37,2013-09-13 20:29:00,
2013-09-13 16:34:00,87.6,76.6,29.79,SSE,165,4.3,6.9,70,0.00,CLR,,0.00,WeatherDisplay:10.37,2013-09-13 20:34:00,
2013-09-13 16:39:00,87.5,76.1,29.80,SE,139,3.1,8.1,69,0.00,CLR,,0.00,WeatherDisplay:10.37,2013-09-13 20:39:00,
2013-09-13 16:44:00,87.3,76.3,29.80,ESE,114,3.4,6.9,70,0.00,CLR,,0.00,WeatherDisplay:10.37,2013-09-13 20:44:00,
2013-09-13 16:49:00,86.8,76.3,29.80,SE,129,4.2,9.2,71,0.00,CLR,,0.00,WeatherDisplay:10.37,2013-09-13 20:49:00,
2013-09-13 16:54:00,86.3,75.4,29.79,SSE,158,4.1,6.9,70,0.00,CLR,,0.00,WeatherDisplay:10.37,2013-09-13 20:54:00,
2013-09-13 16:59:00,86.4,75.9,29.79,SE,136,4.0,6.9,71,0.00,CLR,,0.00,WeatherDisplay:10.37,2013-09-13 20:59:00,
2013-09-13 17:04:00,86.6,75.2,29.79,ENE,63,4.1,4.6,69,0.00,CLR,,0.00,WeatherDisplay:10.37,2013-09-13 21:04:00,
2013-09-13 17:09:00,86.8,75.4,29.79,ESE,123,3.2,4.6,69,0.00,CLR,,0.00,WeatherDisplay:10.37,2013-09-13 21:09:00,
2013-09-13 17:14:00,86.9,75.1,29.79,SE,130,6.7,9.2,68,0.00,CLR,,0.00,WeatherDisplay:10.37,2013-09-13 21:14:00,
2013-09-13 17:19:00,86.9,75.1,29.79,East,91,4.2,6.9,68,0.00,CLR,,0.00,WeatherDisplay:10.37,2013-09-13 21:19:00,
2013-09-13 17:25:00,87.0,74.3,29.79,SSE,154,3.5,4.6,66,0.00,CLR,,0.00,WeatherDisplay:10.37,2013-09-13 21:25:00,
2013-09-13 17:30:00,86.9,74.6,29.79,SSE,148,4.7,6.9,67,0.00,CLR,,0.00,WeatherDisplay:10.37,2013-09-13 21:30:00,
2013-09-13 17:35:00,86.9,74.2,29.79,ESE,112,3.4,4.6,66,0.00,CLR,,0.00,WeatherDisplay:10.37,2013-09-13 21:35:00,
2013-09-13 17:40:00,86.8,73.2,29.79,SE,139,5.8,6.9,64,0.00,CLR,,0.00,WeatherDisplay:10.37,2013-09-13 21:40:00,
2013-09-13 17:45:00,86.7,73.5,29.80,SE,135,3.0,9.2,65,0.00,CLR,,0.00,WeatherDisplay:10.37,2013-09-13 21:45:00,
2013-09-13 17:50:00,86.6,73.4,29.80,East,92,4.1,6.9,65,0.00,CLR,,0.00,WeatherDisplay:10.37,2013-09-13 21:50:00,
2013-09-13 17:55:00,86.6,73.4,29.80,East,92,4.4,5.8,65,0.00,CLR,,0.00,WeatherDisplay:10.37,2013-09-13 21:55:00,
2013-09-13 18:00:00,86.6,73.9,29.80,ESE,111,4.3,6.9,66,0.00,CLR,,0.00,WeatherDisplay:10.37,2013-09-13 22:00:00,
2013-09-13 18:05:00,86.4,73.7,29.80,ESE,103,3.3,3.5,66,0.00,CLR,,0.00,WeatherDisplay:10.37,2013-09-13 22:05:00,
2013-09-13 18:10:00,86.3,73.6,29.80,ESE,123,3.2,8.1,66,0.00,CLR,,0.00,WeatherDisplay:10.37,2013-09-13 22:10:00,
2013-09-13 18:15:00,86.3,74.0,29.80,ESE,103,3.6,6.9,67,0.00,CLR,,0.00,WeatherDisplay:10.37,2013-09-13 22:15:00,
2013-09-13 18:20:00,86.1,73.9,29.80,ENE,74,2.4,2.4,67,0.00,CLR,,0.00,WeatherDisplay:10.37,2013-09-13 22:20:00,
2013-09-13 18:25:00,85.9,74.1,29.80,East,86,1.4,2.3,68,0.00,CLR,,0.00,WeatherDisplay:10.37,2013-09-13 22:25:00,
2013-09-13 18:30:00,85.8,74.0,29.80,ESE,114,3.9,3.9,68,0.00,CLR,,0.00,WeatherDisplay:10.37,2013-09-13 22:30:00,
2013-09-13 18:35:00,85.7,74.4,29.80,SE,134,2.3,6.9,69,0.00,CLR,,0.00,WeatherDisplay:10.37,2013-09-13 22:35:00,
2013-09-13 18:40:00,85.5,74.6,29.81,SE,138,1.5,3.5,70,0.00,CLR,,0.00,WeatherDisplay:10.37,2013-09-13 22:40:00,
2013-09-13 18:45:00,85.2,74.3,29.81,SE,136,3.7,5.8,70,0.00,CLR,,0.00,WeatherDisplay:10.37,2013-09-13 22:45:00,
2013-09-13 18:50:00,85.0,74.5,29.81,SE,134,2.4,5.8,71,0.00,CLR,,0.00,WeatherDisplay:10.37,2013-09-13 22:50:00,
2013-09-13 18:55:00,84.8,74.3,29.81,SE,134,3.0,3.5,71,0.00,CLR,,0.00,WeatherDisplay:10.37,2013-09-13 22:55:00,
2013-09-13 19:00:00,84.5,74.1,29.81,ESE,121,3.1,4.6,71,0.00,CLR,,0.00,WeatherDisplay:10.37,2013-09-13 23:00:00,
2013-09-13 19:05:00,84.3,73.9,29.81,ESE,117,2.5,2.5,71,0.00,CLR,,0.00,WeatherDisplay:10.37,2013-09-13 23:05:00,
2013-09-13 19:10:00,84.2,74.2,29.81,ESE,115,1.6,1.6,72,0.00,CLR,,0.00,WeatherDisplay:10.37,2013-09-13 23:10:00,
2013-09-13 19:15:00,84.1,74.1,29.81,ESE,115,0.6,3.5,72,0.00,CLR,,0.00,WeatherDisplay:10.37,2013-09-13 23:15:00,
2013-09-13 19:20:00,84.0,74.0,29.81,East,96,1.4,3.5,72,0.00,CLR,,0.00,WeatherDisplay:10.37,2013-09-13 23:20:00,
2013-09-13 19:25:00,83.9,74.3,29.81,East,96,0.9,4.6,73,0.00,CLR,,0.00,WeatherDisplay:10.37,2013-09-13 23:25:00,
2013-09-13 19:30:00,83.8,74.6,29.82,East,96,0.9,4.6,74,0.00,CLR,,0.00,WeatherDisplay:10.37,2013-09-13 23:30:00,
2013-09-13 19:35:00,83.5,74.3,29.82,East,96,0.8,4.6,74,0.00,CLR,,0.00,WeatherDisplay:10.37,2013-09-13 23:35:00,
2013-09-13 19:40:00,83.4,74.6,29.82,East,96,0.6,0.0,75,0.00,CLR,,0.00,WeatherDisplay:10.37,2013-09-13 23:40:00,
2013-09-13 19:45:00,83.2,74.4,29.82,East,96,0.4,1.2,75,0.00,CLR,,0.00,WeatherDisplay:10.37,2013-09-13 23:45:00,
2013-09-13 19:50:00,83.0,74.6,29.82,East,96,0.7,2.3,76,0.00,CLR,,0.00,WeatherDisplay:10.37,2013-09-13 23:50:00,
2013-09-13 19:55:00,82.9,74.2,29.82,East,96,2.8,4.6,75,0.00,CLR,,0.00,WeatherDisplay:10.37,2013-09-13 23:55:00,
2013-09-13 20:00:00,82.8,74.5,29.82,East,96,0.3,2.3,76,0.00,CLR,,0.00,WeatherDisplay:10.37,2013-09-14 00:00:00,
2013-09-13 20:05:00,82.8,74.8,29.82,East,96,1.6,3.5,77,0.00,CLR,,0.00,WeatherDisplay:10.37,2013-09-14 00:05:00,
2013-09-13 20:10:00,82.6,74.7,29.82,East,96,0.8,2.3,77,0.00,CLR,,0.00,WeatherDisplay:10.37,2013-09-14 00:10:00,
2013-09-13 20:15:00,82.5,74.6,29.82,East,96,1.1,3.5,77,0.00,CLR,,0.00,WeatherDisplay:10.37,2013-09-14 00:15:00,
2013-09-13 20:20:00,82.3,74.4,29.83,East,96,0.4,1.2,77,0.00,CLR,,0.00,WeatherDisplay:10.37,2013-09-14 00:20:00,
2013-09-13 20:25:00,82.3,74.4,29.83,East,96,0.3,1.2,77,0.00,CLR,,0.00,WeatherDisplay:10.37,2013-09-14 00:25:00,
2013-09-13 20:30:00,82.2,74.3,29.82,East,96,2.0,3.5,77,0.00,CLR,,0.00,WeatherDisplay:10.37,2013-09-14 00:30:00,
2013-09-13 20:35:00,82.1,74.6,29.83,East,96,0.2,1.2,78,0.00,CLR,,0.00,WeatherDisplay:10.37,2013-09-14 00:35:00,
2013-09-13 20:40:00,82.1,74.6,29.83,East,96,0.1,0.0,78,0.00,CLR,,0.00,WeatherDisplay:10.37,2013-09-14 00:40:00,
2013-09-13 20:45:00,82.0,74.8,29.83,East,96,0.0,0.0,79,0.00,CLR,,0.00,WeatherDisplay:10.37,2013-09-14 00:45:00,
2013-09-13 20:50:00,81.9,74.4,29.83,East,96,0.1,1.2,78,0.00,CLR,,0.00,WeatherDisplay:10.37,2013-09-14 00:50:00,
2013-09-13 20:55:00,81.8,74.6,29.84,East,96,1.0,2.3,79,0.00,CLR,,0.00,WeatherDisplay:10.37,2013-09-14 00:55:00,
2013-09-13 21:00:00,81.7,74.5,29.84,East,96,0.0,0.0,79,0.00,CLR,,0.00,WeatherDisplay:10.37,2013-09-14 01:00:00,
2013-09-13 21:05:00,81.7,74.9,29.84,East,96,0.9,2.3,80,0.00,CLR,,0.00,WeatherDisplay:10.37,2013-09-14 01:05:00,
2013-09-13 21:10:00,81.7,74.9,29.84,East,96,0.2,1.2,80,0.00,CLR,,0.00,WeatherDisplay:10.37,2013-09-14 01:10:00,
2013-09-13 21:15:00,81.6,74.8,29.84,East,96,0.4,1.2,80,0.00,CLR,,0.00,WeatherDisplay:10.37,2013-09-14 01:15:00,
2013-09-13 21:20:00,81.5,75.1,29.84,East,96,0.0,0.0,81,0.00,CLR,,0.00,WeatherDisplay:10.37,2013-09-14 01:20:00,
2013-09-13 21:25:00,81.4,75.4,29.84,East,96,0.8,2.3,82,0.00,CLR,,0.00,WeatherDisplay:10.37,2013-09-14 01:25:00,
2013-09-13 21:30:00,81.3,75.6,29.84,East,96,0.3,2.3,83,0.00,CLR,,0.00,WeatherDisplay:10.37,2013-09-14 01:30:00,
2013-09-13 21:35:00,81.1,75.1,29.85,East,96,0.0,1.2,82,0.00,CLR,,0.00,WeatherDisplay:10.37,2013-09-14 01:35:00,
2013-09-13 21:40:00,81.0,75.3,29.85,East,96,0.0,0.0,83,0.00,CLR,,0.00,WeatherDisplay:10.37,2013-09-14 01:40:00,
2013-09-13 21:45:00,80.9,75.6,29.85,East,96,0.0,0.0,84,0.00,CLR,,0.00,WeatherDisplay:10.37,2013-09-14 01:45:00,
2013-09-13 21:50:00,80.8,75.5,29.85,East,96,0.0,0.0,84,0.00,CLR,,0.00,WeatherDisplay:10.37,2013-09-14 01:50:00,
2013-09-13 21:55:00,80.7,75.4,29.85,East,96,0.0,0.0,84,0.00,CLR,,0.00,WeatherDisplay:10.37,2013-09-14 01:55:00,
2013-09-13 22:00:00,80.6,75.7,29.85,East,96,0.0,0.0,85,0.00,CLR,,0.00,WeatherDisplay:10.37,2013-09-14 02:00:00,
2013-09-13 22:05:00,80.4,75.1,29.85,East,96,0.0,0.0,84,0.00,CLR,,0.00,WeatherDisplay:10.37,2013-09-14 02:05:00,
2013-09-13 22:11:00,80.5,76.3,29.85,East,96,0.0,0.0,87,0.00,CLR,,0.00,WeatherDisplay:10.37,2013-09-14 02:11:00,
2013-09-13 22:16:00,80.3,75.7,29.86,East,96,0.0,0.0,86,0.00,CLR,,0.00,WeatherDisplay:10.37,2013-09-14 02:16:00,
2013-09-13 22:21:00,80.3,76.1,29.86,East,96,0.0,0.0,87,0.00,CLR,,0.00,WeatherDisplay:10.37,2013-09-14 02:21:00,
2013-09-13 22:26:00,80.2,76.3,29.86,East,96,0.0,0.0,88,0.00,CLR,,0.00,WeatherDisplay:10.37,2013-09-14 02:26:00,
2013-09-13 22:31:00,80.1,76.2,29.86,East,96,0.0,0.0,88,0.00,CLR,,0.00,WeatherDisplay:10.37,2013-09-14 02:31:00,
2013-09-13 22:36:00,80.0,76.1,29.86,East,96,0.0,0.0,88,0.00,CLR,,0.00,WeatherDisplay:10.37,2013-09-14 02:36:00,
2013-09-13 22:41:00,79.8,75.9,29.86,East,96,0.0,0.0,88,0.00,CLR,,0.00,WeatherDisplay:10.37,2013-09-14 02:41:00,
2013-09-13 22:46:00,79.7,76.2,29.86,East,96,0.0,0.0,89,0.00,CLR,,0.00,WeatherDisplay:10.37,2013-09-14 02:46:00,
2013-09-13 22:51:00,79.7,76.2,29.86,East,96,0.0,0.0,89,0.00,CLR,,0.00,WeatherDisplay:10.37,2013-09-14 02:51:00,
2013-09-13 22:56:00,79.6,76.1,29.86,East,96,0.0,0.0,89,0.00,CLR,,0.00,WeatherDisplay:10.37,2013-09-14 02:56:00,
2013-09-13 23:01:00,79.5,76.3,29.86,East,96,0.0,0.0,90,0.00,CLR,,0.00,WeatherDisplay:10.37,2013-09-14 03:01:00,
2013-09-13 23:06:00,79.5,76.3,29.86,East,96,0.0,0.0,90,0.00,CLR,,0.00,WeatherDisplay:10.37,2013-09-14 03:06:00,
2013-09-13 23:11:00,79.3,76.1,29.86,East,96,0.0,0.0,90,0.00,CLR,,0.00,WeatherDisplay:10.37,2013-09-14 03:11:00,
2013-09-13 23:16:00,79.3,76.4,29.86,East,96,0.0,0.0,91,0.00,CLR,,0.00,WeatherDisplay:10.37,2013-09-14 03:16:00,
2013-09-13 23:21:00,79.3,76.4,29.86,East,96,0.0,0.0,91,0.00,CLR,,0.00,WeatherDisplay:10.37,2013-09-14 03:21:00,
2013-09-13 23:26:00,79.2,76.3,29.86,East,96,0.0,0.0,91,0.00,CLR,,0.00,WeatherDisplay:10.37,2013-09-14 03:26:00,
2013-09-13 23:31:00,79.1,76.2,29.86,East,96,0.0,0.0,91,0.00,CLR,,0.00,WeatherDisplay:10.37,2013-09-14 03:31:00,
2013-09-13 23:36:00,78.9,76.0,29.85,East,96,0.0,0.0,91,0.00,CLR,,0.00,WeatherDisplay:10.37,2013-09-14 03:36:00,
2013-09-13 23:41:00,78.9,76.0,29.85,East,96,0.0,0.0,91,0.00,CLR,,0.00,WeatherDisplay:10.37,2013-09-14 03:41:00,
2013-09-13 23:46:00,78.8,75.9,29.86,East,96,0.0,0.0,91,0.00,CLR,,0.00,WeatherDisplay:10.37,2013-09-14 03:46:00,
2013-09-13 23:51:00,78.7,76.2,29.85,East,96,0.0,0.0,92,0.00,CLR,,0.00,WeatherDisplay:10.37,2013-09-14 03:51:00,
2013-09-13 23:56:00,78.6,76.1,29.85,East,96,0.0,0.0,92,0.00,CLR,,0.00,WeatherDisplay:10.37,2013-09-14 03:56:00,